Ayrshire, Iowa
Current Conditions -  °F | °C
As of 11:53 PM on Thursday 30 Oct 2014 (Local Time) from KSPW Reporting Station
Overcast Overcast  
Wind Chill: 24°   Ceiling: 2900
Heat Index: 35°   Visibility: 10mi
Dew Point: 23°   Wind: 22mph
Humidity: 61%   Direction: 350°N
Pressure: 30.39"   Gusts: 36mph
Location:  43.04°N, 94.83°W
Report Text: KSPW 310453Z AUTO 35019G31KT 10SM OVC029 02/M05 A3039 RMK AO2 PK WND 36031/0445 SLP301 T00171050 TSNO
Loading
Personal Weather Stations






























Interactive Weather Map New forecast layout! Learn more

10-Day Weather Forecast

Advertisements
Track Severe Weather on mobile